sensor_id;sensor_type;location;lat;lon;timestamp;P1;durP1;ratioP1;P2;durP2;ratioP2
15968;SDS011;8085;53.472;9.794;2024-02-04T00:01:22;9.27;;;1.42;;
15968;SDS011;8085;53.472;9.794;2024-02-04T00:03:49;11.23;;;1.60;;
15968;SDS011;8085;53.472;9.794;2024-02-04T00:06:16;8.43;;;1.00;;
15968;SDS011;8085;53.472;9.794;2024-02-04T00:08:43;8.50;;;1.20;;
15968;SDS011;8085;53.472;9.794;2024-02-04T00:11:10;9.65;;;1.17;;
15968;SDS011;8085;53.472;9.794;2024-02-04T00:13:37;11.35;;;1.48;;
15968;SDS011;8085;53.472;9.794;2024-02-04T00:16:07;10.93;;;1.08;;
15968;SDS011;8085;53.472;9.794;2024-02-04T00:18:42;9.30;;;1.05;;
15968;SDS011;8085;53.472;9.794;2024-02-04T00:21:09;8.13;;;1.52;;
15968;SDS011;8085;53.472;9.794;2024-02-04T00:23:36;9.88;;;1.40;;
15968;SDS011;8085;53.472;9.794;2024-02-04T00:26:12;10.35;;;1.20;;
15968;SDS011;8085;53.472;9.794;2024-02-04T00:28:42;7.85;;;1.25;;
15968;SDS011;8085;53.472;9.794;2024-02-04T00:31:11;3.97;;;0.98;;
15968;SDS011;8085;53.472;9.794;2024-02-04T00:33:41;11.95;;;1.52;;
15968;SDS011;8085;53.472;9.794;2024-02-04T00:36:11;7.57;;;0.85;;
15968;SDS011;8085;53.472;9.794;2024-02-04T00:38:45;7.65;;;1.27;;
15968;SDS011;8085;53.472;9.794;2024-02-04T00:41:24;8.68;;;1.00;;
15968;SDS011;8085;53.472;9.794;2024-02-04T00:44:26;11.45;;;1.38;;
15968;SDS011;8085;53.472;9.794;2024-02-04T00:49:22;8.35;;;0.90;;
15968;SDS011;8085;53.472;9.794;2024-02-04T00:51:53;9.30;;;0.98;;
15968;SDS011;8085;53.472;9.794;2024-02-04T00:54:20;7.90;;;0.98;;
15968;SDS011;8085;53.472;9.794;2024-02-04T00:56:47;6.32;;;0.98;;
15968;SDS011;8085;53.472;9.794;2024-02-04T00:59:18;9.45;;;1.23;;
15968;SDS011;8085;53.472;9.794;2024-02-04T01:01:49;9.43;;;1.48;;
15968;SDS011;8085;53.472;9.794;2024-02-04T01:04:16;9.20;;;1.02;;
15968;SDS011;8085;53.472;9.794;2024-02-04T01:06:46;10.10;;;1.10;;
15968;SDS011;8085;53.472;9.794;2024-02-04T01:09:13;8.75;;;1.05;;
15968;SDS011;8085;53.472;9.794;2024-02-04T01:11:40;8.60;;;0.85;;
15968;SDS011;8085;53.472;9.794;2024-02-04T01:14:07;9.48;;;1.00;;
15968;SDS011;8085;53.472;9.794;2024-02-04T01:16:34;6.20;;;0.88;;
15968;SDS011;8085;53.472;9.794;2024-02-04T01:19:01;5.50;;;0.70;;
15968;SDS011;8085;53.472;9.794;2024-02-04T01:21:28;9.02;;;1.10;;
15968;SDS011;8085;53.472;9.794;2024-02-04T01:23:57;7.53;;;1.00;;
15968;SDS011;8085;53.472;9.794;2024-02-04T01:26:24;10.30;;;1.25;;
15968;SDS011;8085;53.472;9.794;2024-02-04T01:28:51;5.15;;;0.80;;
15968;SDS011;8085;53.472;9.794;2024-02-04T01:31:18;9.80;;;1.20;;
15968;SDS011;8085;53.472;9.794;2024-02-04T01:33:45;6.40;;;0.93;;
15968;SDS011;8085;53.472;9.794;2024-02-04T01:36:12;9.75;;;1.42;;
15968;SDS011;8085;53.472;9.794;2024-02-04T01:38:40;5.68;;;0.73;;
15968;SDS011;8085;53.472;9.794;2024-02-04T01:41:08;8.45;;;1.00;;
15968;SDS011;8085;53.472;9.794;2024-02-04T01:43:38;10.35;;;1.20;;
15968;SDS011;8085;53.472;9.794;2024-02-04T01:46:06;7.80;;;0.98;;
15968;SDS011;8085;53.472;9.794;2024-02-04T01:48:34;6.20;;;1.05;;
15968;SDS011;8085;53.472;9.794;2024-02-04T01:51:06;9.75;;;1.00;;
15968;SDS011;8085;53.472;9.794;2024-02-04T01:53:35;6.50;;;0.90;;
15968;SDS011;8085;53.472;9.794;2024-02-04T01:56:08;9.63;;;0.95;;
15968;SDS011;8085;53.472;9.794;2024-02-04T01:58:36;5.55;;;1.02;;
15968;SDS011;8085;53.472;9.794;2024-02-04T02:01:03;6.10;;;1.27;;
15968;SDS011;8085;53.472;9.794;2024-02-04T02:03:30;8.43;;;0.88;;
15968;SDS011;8085;53.472;9.794;2024-02-04T02:05:59;8.60;;;1.05;;
15968;SDS011;8085;53.472;9.794;2024-02-04T02:08:28;4.32;;;0.80;;
15968;SDS011;8085;53.472;9.794;2024-02-04T02:10:57;11.00;;;0.95;;
15968;SDS011;8085;53.472;9.794;2024-02-04T02:13:33;7.03;;;0.70;;
15968;SDS011;8085;53.472;9.794;2024-02-04T02:16:04;5.50;;;0.82;;
15968;SDS011;8085;53.472;9.794;2024-02-04T02:18:39;7.38;;;1.23;;
15968;SDS011;8085;53.472;9.794;2024-02-04T02:21:16;10.23;;;0.90;;
15968;SDS011;8085;53.472;9.794;2024-02-04T02:23:55;7.80;;;1.52;;
15968;SDS011;8085;53.472;9.794;2024-02-04T02:26:31;10.75;;;1.23;;
15968;SDS011;8085;53.472;9.794;2024-02-04T02:29:06;7.55;;;0.90;;
15968;SDS011;8085;53.472;9.794;2024-02-04T02:31:33;10.20;;;1.10;;
15968;SDS011;8085;53.472;9.794;2024-02-04T02:34:02;8.07;;;0.80;;
15968;SDS011;8085;53.472;9.794;2024-02-04T02:36:33;5.63;;;0.60;;
15968;SDS011;8085;53.472;9.794;2024-02-04T02:39:15;5.65;;;0.82;;
15968;SDS011;8085;53.472;9.794;2024-02-04T02:41:49;8.10;;;1.10;;
15968;SDS011;8085;53.472;9.794;2024-02-04T02:44:17;9.75;;;1.10;;
15968;SDS011;8085;53.472;9.794;2024-02-04T02:46:45;6.95;;;0.93;;
15968;SDS011;8085;53.472;9.794;2024-02-04T02:49:13;5.38;;;1.05;;
15968;SDS011;8085;53.472;9.794;2024-02-04T02:51:41;6.38;;;0.93;;
15968;SDS011;8085;53.472;9.794;2024-02-04T02:54:08;6.25;;;0.82;;
15968;SDS011;8085;53.472;9.794;2024-02-04T02:56:36;6.80;;;0.77;;
15968;SDS011;8085;53.472;9.794;2024-02-04T02:59:05;6.30;;;1.17;;
15968;SDS011;8085;53.472;9.794;2024-02-04T03:01:33;6.85;;;1.35;;
15968;SDS011;8085;53.472;9.794;2024-02-04T03:04:00;6.82;;;1.05;;
15968;SDS011;8085;53.472;9.794;2024-02-04T03:06:27;5.45;;;0.85;;
15968;SDS011;8085;53.472;9.794;2024-02-04T03:08:54;6.32;;;0.77;;
15968;SDS011;8085;53.472;9.794;2024-02-04T03:11:21;4.88;;;0.82;;
15968;SDS011;8085;53.472;9.794;2024-02-04T03:13:48;6.97;;;1.05;;
15968;SDS011;8085;53.472;9.794;2024-02-04T03:16:16;8.63;;;0.70;;
15968;SDS011;8085;53.472;9.794;2024-02-04T03:18:43;5.00;;;1.10;;
15968;SDS011;8085;53.472;9.794;2024-02-04T03:21:12;8.18;;;0.90;;
15968;SDS011;8085;53.472;9.794;2024-02-04T03:23:40;4.60;;;0.98;;
15968;SDS011;8085;53.472;9.794;2024-02-04T03:26:08;4.40;;;0.60;;
15968;SDS011;8085;53.472;9.794;2024-02-04T03:28:40;7.00;;;0.90;;
15968;SDS011;8085;53.472;9.794;2024-02-04T03:31:07;8.23;;;1.38;;
15968;SDS011;8085;53.472;9.794;2024-02-04T03:33:36;8.23;;;1.20;;
15968;SDS011;8085;53.472;9.794;2024-02-04T03:36:03;6.20;;;0.90;;
15968;SDS011;8085;53.472;9.794;2024-02-04T03:38:32;9.70;;;0.85;;
15968;SDS011;8085;53.472;9.794;2024-02-04T03:41:00;6.68;;;1.20;;
15968;SDS011;8085;53.472;9.794;2024-02-04T03:43:33;4.60;;;0.77;;
15968;SDS011;8085;53.472;9.794;2024-02-04T03:46:02;7.90;;;0.90;;
15968;SDS011;8085;53.472;9.794;2024-02-04T03:48:29;8.75;;;0.98;;
15968;SDS011;8085;53.472;9.794;2024-02-04T03:50:58;4.43;;;0.90;;
15968;SDS011;8085;53.472;9.794;2024-02-04T03:53:25;7.97;;;0.88;;
15968;SDS011;8085;53.472;9.794;2024-02-04T03:55:52;5.72;;;1.05;;
15968;SDS011;8085;53.472;9.794;2024-02-04T03:58:20;4.35;;;1.02;;
15968;SDS011;8085;53.472;9.794;2024-02-04T04:00:54;12.35;;;1.05;;
15968;SDS011;8085;53.472;9.794;2024-02-04T04:03:21;9.27;;;1.05;;
15968;SDS011;8085;53.472;9.794;2024-02-04T04:05:48;4.68;;;0.80;;
15968;SDS011;8085;53.472;9.794;2024-02-04T04:08:23;8.60;;;1.25;;
15968;SDS011;8085;53.472;9.794;2024-02-04T04:10:49;6.40;;;1.02;;
15968;SDS011;8085;53.472;9.794;2024-02-04T04:13:17;6.97;;;1.38;;
15968;SDS011;8085;53.472;9.794;2024-02-04T04:15:44;7.60;;;1.73;;
15968;SDS011;8085;53.472;9.794;2024-02-04T04:18:11;5.45;;;1.35;;
15968;SDS011;8085;53.472;9.794;2024-02-04T04:20:38;10.45;;;1.70;;
15968;SDS011;8085;53.472;9.794;2024-02-04T04:23:05;12.10;;;1.65;;
15968;SDS011;8085;53.472;9.794;2024-02-04T04:25:33;7.50;;;1.20;;
15968;SDS011;8085;53.472;9.794;2024-02-04T04:27:59;9.13;;;1.55;;
15968;SDS011;8085;53.472;9.794;2024-02-04T04:30:26;10.63;;;1.70;;
15968;SDS011;8085;53.472;9.794;2024-02-04T04:32:53;12.70;;;1.65;;
15968;SDS011;8085;53.472;9.794;2024-02-04T04:35:22;8.18;;;1.60;;
15968;SDS011;8085;53.472;9.794;2024-02-04T04:37:50;6.35;;;1.90;;
15968;SDS011;8085;53.472;9.794;2024-02-04T04:40:25;6.30;;;1.88;;
15968;SDS011;8085;53.472;9.794;2024-02-04T04:42:54;10.23;;;1.77;;
15968;SDS011;8085;53.472;9.794;2024-02-04T04:45:24;6.03;;;1.63;;
15968;SDS011;8085;53.472;9.794;2024-02-04T04:47:51;10.20;;;2.15;;
15968;SDS011;8085;53.472;9.794;2024-02-04T04:50:18;4.95;;;1.63;;
15968;SDS011;8085;53.472;9.794;2024-02-04T04:52:45;8.13;;;2.33;;
15968;SDS011;8085;53.472;9.794;2024-02-04T04:55:16;7.75;;;2.05;;
15968;SDS011;8085;53.472;9.794;2024-02-04T04:57:43;13.02;;;2.50;;
15968;SDS011;8085;53.472;9.794;2024-02-04T05:02:46;10.60;;;1.90;;
15968;SDS011;8085;53.472;9.794;2024-02-04T05:05:13;7.00;;;1.70;;
15968;SDS011;8085;53.472;9.794;2024-02-04T05:07:40;7.60;;;1.48;;
15968;SDS011;8085;53.472;9.794;2024-02-04T05:10:08;7.75;;;1.52;;
15968;SDS011;8085;53.472;9.794;2024-02-04T05:12:36;9.63;;;1.95;;
15968;SDS011;8085;53.472;9.794;2024-02-04T05:15:03;12.50;;;2.75;;
15968;SDS011;8085;53.472;9.794;2024-02-04T05:17:32;10.10;;;2.20;;
15968;SDS011;8085;53.472;9.794;2024-02-04T05:20:00;10.23;;;2.10;;
15968;SDS011;8085;53.472;9.794;2024-02-04T05:22:30;7.78;;;1.50;;
15968;SDS011;8085;53.472;9.794;2024-02-04T05:24:57;9.98;;;2.00;;
15968;SDS011;8085;53.472;9.794;2024-02-04T05:27:26;10.57;;;2.05;;
15968;SDS011;8085;53.472;9.794;2024-02-04T05:29:57;8.05;;;1.48;;
15968;SDS011;8085;53.472;9.794;2024-02-04T05:32:24;9.00;;;1.55;;
15968;SDS011;8085;53.472;9.794;2024-02-04T05:34:52;7.55;;;2.20;;
15968;SDS011;8085;53.472;9.794;2024-02-04T05:37:19;7.43;;;1.60;;
15968;SDS011;8085;53.472;9.794;2024-02-04T05:39:47;10.38;;;1.60;;
15968;SDS011;8085;53.472;9.794;2024-02-04T05:42:14;12.63;;;1.50;;
15968;SDS011;8085;53.472;9.794;2024-02-04T05:44:41;5.93;;;1.52;;
15968;SDS011;8085;53.472;9.794;2024-02-04T05:47:09;8.98;;;1.80;;
15968;SDS011;8085;53.472;9.794;2024-02-04T05:49:39;6.50;;;1.45;;
15968;SDS011;8085;53.472;9.794;2024-02-04T05:52:09;9.50;;;1.83;;
15968;SDS011;8085;53.472;9.794;2024-02-04T05:54:39;8.45;;;1.52;;
15968;SDS011;8085;53.472;9.794;2024-02-04T05:57:06;10.48;;;1.88;;
15968;SDS011;8085;53.472;9.794;2024-02-04T05:59:33;11.20;;;2.05;;
15968;SDS011;8085;53.472;9.794;2024-02-04T06:02:00;5.95;;;1.55;;
15968;SDS011;8085;53.472;9.794;2024-02-04T06:04:27;6.65;;;1.33;;
15968;SDS011;8085;53.472;9.794;2024-02-04T06:06:54;6.53;;;1.38;;
15968;SDS011;8085;53.472;9.794;2024-02-04T06:09:23;11.70;;;1.60;;
15968;SDS011;8085;53.472;9.794;2024-02-04T06:11:51;8.00;;;1.70;;
15968;SDS011;8085;53.472;9.794;2024-02-04T06:14:18;7.88;;;1.15;;
15968;SDS011;8085;53.472;9.794;2024-02-04T06:16:44;6.63;;;1.00;;
15968;SDS011;8085;53.472;9.794;2024-02-04T06:19:11;8.23;;;1.30;;
15968;SDS011;8085;53.472;9.794;2024-02-04T06:21:40;4.43;;;1.10;;
15968;SDS011;8085;53.472;9.794;2024-02-04T06:24:08;11.05;;;1.23;;
15968;SDS011;8085;53.472;9.794;2024-02-04T06:26:38;12.30;;;1.35;;
15968;SDS011;8085;53.472;9.794;2024-02-04T06:29:06;7.68;;;1.25;;
15968;SDS011;8085;53.472;9.794;2024-02-04T06:31:33;6.55;;;1.20;;
15968;SDS011;8085;53.472;9.794;2024-02-04T06:34:00;8.52;;;1.20;;
15968;SDS011;8085;53.472;9.794;2024-02-04T06:36:27;9.02;;;1.52;;
15968;SDS011;8085;53.472;9.794;2024-02-04T06:41:42;8.05;;;0.93;;
15968;SDS011;8085;53.472;9.794;2024-02-04T06:44:10;7.20;;;1.10;;
15968;SDS011;8085;53.472;9.794;2024-02-04T06:46:38;6.75;;;1.23;;
15968;SDS011;8085;53.472;9.794;2024-02-04T06:49:05;6.65;;;0.90;;
15968;SDS011;8085;53.472;9.794;2024-02-04T06:51:32;11.43;;;1.20;;
15968;SDS011;8085;53.472;9.794;2024-02-04T06:53:59;7.85;;;1.08;;
15968;SDS011;8085;53.472;9.794;2024-02-04T06:56:26;7.15;;;1.13;;
15968;SDS011;8085;53.472;9.794;2024-02-04T06:58:55;10.13;;;1.00;;
15968;SDS011;8085;53.472;9.794;2024-02-04T07:01:22;8.00;;;1.08;;
15968;SDS011;8085;53.472;9.794;2024-02-04T07:03:51;5.45;;;0.70;;
15968;SDS011;8085;53.472;9.794;2024-02-04T07:06:18;5.97;;;1.02;;
15968;SDS011;8085;53.472;9.794;2024-02-04T07:08:45;8.95;;;1.13;;
15968;SDS011;8085;53.472;9.794;2024-02-04T07:11:12;6.78;;;0.90;;
15968;SDS011;8085;53.472;9.794;2024-02-04T07:13:39;12.75;;;0.98;;
15968;SDS011;8085;53.472;9.794;2024-02-04T07:16:10;7.90;;;1.13;;
15968;SDS011;8085;53.472;9.794;2024-02-04T07:18:38;11.75;;;1.20;;
15968;SDS011;8085;53.472;9.794;2024-02-04T07:21:05;8.88;;;0.88;;
15968;SDS011;8085;53.472;9.794;2024-02-04T07:23:32;5.25;;;0.77;;
15968;SDS011;8085;53.472;9.794;2024-02-04T07:25:59;6.63;;;0.80;;
15968;SDS011;8085;53.472;9.794;2024-02-04T07:28:26;8.10;;;1.20;;
15968;SDS011;8085;53.472;9.794;2024-02-04T07:30:53;9.05;;;1.38;;
15968;SDS011;8085;53.472;9.794;2024-02-04T07:33:22;6.70;;;1.20;;
15968;SDS011;8085;53.472;9.794;2024-02-04T07:35:49;10.85;;;2.03;;
15968;SDS011;8085;53.472;9.794;2024-02-04T07:38:16;9.25;;;1.05;;
15968;SDS011;8085;53.472;9.794;2024-02-04T07:40:43;6.47;;;0.88;;
15968;SDS011;8085;53.472;9.794;2024-02-04T07:43:12;17.20;;;2.05;;
15968;SDS011;8085;53.472;9.794;2024-02-04T07:45:39;9.05;;;1.15;;
15968;SDS011;8085;53.472;9.794;2024-02-04T07:48:07;10.88;;;1.05;;
15968;SDS011;8085;53.472;9.794;2024-02-04T07:50:36;10.07;;;1.08;;
15968;SDS011;8085;53.472;9.794;2024-02-04T07:53:03;8.65;;;1.20;;
15968;SDS011;8085;53.472;9.794;2024-02-04T07:55:30;7.43;;;0.90;;
15968;SDS011;8085;53.472;9.794;2024-02-04T07:57:57;6.25;;;1.10;;
15968;SDS011;8085;53.472;9.794;2024-02-04T08:00:28;6.93;;;1.30;;
15968;SDS011;8085;53.472;9.794;2024-02-04T08:02:55;8.57;;;1.45;;
15968;SDS011;8085;53.472;9.794;2024-02-04T08:05:22;5.47;;;1.08;;
15968;SDS011;8085;53.472;9.794;2024-02-04T08:07:51;9.88;;;1.40;;
15968;SDS011;8085;53.472;9.794;2024-02-04T08:10:17;6.22;;;1.20;;
15968;SDS011;8085;53.472;9.794;2024-02-04T08:12:44;7.40;;;1.13;;
15968;SDS011;8085;53.472;9.794;2024-02-04T08:17:42;7.57;;;1.05;;
15968;SDS011;8085;53.472;9.794;2024-02-04T08:20:09;8.30;;;1.58;;
15968;SDS011;8085;53.472;9.794;2024-02-04T08:22:36;7.55;;;1.40;;
15968;SDS011;8085;53.472;9.794;2024-02-04T08:25:05;10.68;;;1.15;;
15968;SDS011;8085;53.472;9.794;2024-02-04T08:27:35;6.13;;;1.40;;
15968;SDS011;8085;53.472;9.794;2024-02-04T08:30:02;9.48;;;1.48;;
15968;SDS011;8085;53.472;9.794;2024-02-04T08:32:30;15.25;;;1.88;;
15968;SDS011;8085;53.472;9.794;2024-02-04T08:34:57;10.32;;;1.17;;
15968;SDS011;8085;53.472;9.794;2024-02-04T08:37:26;10.80;;;1.48;;
15968;SDS011;8085;53.472;9.794;2024-02-04T08:39:53;5.57;;;1.13;;
15968;SDS011;8085;53.472;9.794;2024-02-04T08:42:22;8.15;;;1.45;;
15968;SDS011;8085;53.472;9.794;2024-02-04T08:44:49;6.60;;;1.58;;
15968;SDS011;8085;53.472;9.794;2024-02-04T08:47:16;6.90;;;1.60;;
15968;SDS011;8085;53.472;9.794;2024-02-04T08:49:46;7.32;;;1.50;;
15968;SDS011;8085;53.472;9.794;2024-02-04T08:52:15;15.60;;;1.98;;
15968;SDS011;8085;53.472;9.794;2024-02-04T08:54:42;8.18;;;1.92;;
15968;SDS011;8085;53.472;9.794;2024-02-04T08:57:11;6.30;;;1.98;;
15968;SDS011;8085;53.472;9.794;2024-02-04T08:59:40;8.32;;;1.67;;
15968;SDS011;8085;53.472;9.794;2024-02-04T09:02:07;13.18;;;1.90;;
15968;SDS011;8085;53.472;9.794;2024-02-04T09:04:34;12.98;;;1.83;;
15968;SDS011;8085;53.472;9.794;2024-02-04T09:07:05;10.75;;;1.85;;
15968;SDS011;8085;53.472;9.794;2024-02-04T09:09:32;12.45;;;2.97;;
15968;SDS011;8085;53.472;9.794;2024-02-04T09:11:59;14.18;;;1.98;;
15968;SDS011;8085;53.472;9.794;2024-02-04T09:14:26;10.02;;;2.20;;
15968;SDS011;8085;53.472;9.794;2024-02-04T09:16:54;11.40;;;2.30;;
15968;SDS011;8085;53.472;9.794;2024-02-04T09:19:21;14.75;;;2.42;;
15968;SDS011;8085;53.472;9.794;2024-02-04T09:21:49;7.75;;;1.80;;
15968;SDS011;8085;53.472;9.794;2024-02-04T09:24:16;4.57;;;1.42;;
15968;SDS011;8085;53.472;9.794;2024-02-04T09:26:43;12.63;;;1.90;;
15968;SDS011;8085;53.472;9.794;2024-02-04T09:29:10;13.50;;;2.15;;
15968;SDS011;8085;53.472;9.794;2024-02-04T09:31:36;7.60;;;1.77;;
15968;SDS011;8085;53.472;9.794;2024-02-04T09:34:05;13.15;;;2.00;;
15968;SDS011;8085;53.472;9.794;2024-02-04T09:36:32;10.13;;;1.50;;
15968;SDS011;8085;53.472;9.794;2024-02-04T09:38:58;10.32;;;1.60;;
15968;SDS011;8085;53.472;9.794;2024-02-04T09:41:25;7.97;;;1.58;;
15968;SDS011;8085;53.472;9.794;2024-02-04T09:43:52;8.38;;;1.77;;
15968;SDS011;8085;53.472;9.794;2024-02-04T09:46:20;15.27;;;2.10;;
15968;SDS011;8085;53.472;9.794;2024-02-04T09:48:47;14.57;;;1.58;;
15968;SDS011;8085;53.472;9.794;2024-02-04T09:51:18;11.07;;;1.60;;
15968;SDS011;8085;53.472;9.794;2024-02-04T09:53:45;8.18;;;1.55;;
15968;SDS011;8085;53.472;9.794;2024-02-04T09:56:18;10.52;;;1.40;;
15968;SDS011;8085;53.472;9.794;2024-02-04T09:58:48;12.82;;;1.77;;
15968;SDS011;8085;53.472;9.794;2024-02-04T10:01:18;19.52;;;1.73;;
15968;SDS011;8085;53.472;9.794;2024-02-04T10:03:46;8.63;;;1.50;;
15968;SDS011;8085;53.472;9.794;2024-02-04T10:06:13;8.15;;;1.50;;
15968;SDS011;8085;53.472;9.794;2024-02-04T10:08:42;8.13;;;1.35;;
15968;SDS011;8085;53.472;9.794;2024-02-04T10:11:11;14.05;;;1.58;;
15968;SDS011;8085;53.472;9.794;2024-02-04T10:13:44;12.80;;;1.92;;
15968;SDS011;8085;53.472;9.794;2024-02-04T10:16:12;8.88;;;1.75;;
15968;SDS011;8085;53.472;9.794;2024-02-04T10:18:40;13.75;;;1.63;;
15968;SDS011;8085;53.472;9.794;2024-02-04T10:21:14;13.27;;;2.17;;
15968;SDS011;8085;53.472;9.794;2024-02-04T10:23:44;11.60;;;1.70;;
15968;SDS011;8085;53.472;9.794;2024-02-04T10:26:11;14.65;;;1.70;;
15968;SDS011;8085;53.472;9.794;2024-02-04T10:28:38;13.38;;;2.60;;
15968;SDS011;8085;53.472;9.794;2024-02-04T10:31:07;9.45;;;1.40;;
15968;SDS011;8085;53.472;9.794;2024-02-04T10:33:36;6.22;;;1.40;;
15968;SDS011;8085;53.472;9.794;2024-02-04T10:36:03;12.98;;;1.63;;
15968;SDS011;8085;53.472;9.794;2024-02-04T10:38:30;9.35;;;1.70;;
15968;SDS011;8085;53.472;9.794;2024-02-04T10:41:00;15.18;;;2.15;;
15968;SDS011;8085;53.472;9.794;2024-02-04T10:43:28;14.45;;;1.67;;
15968;SDS011;8085;53.472;9.794;2024-02-04T10:46:01;8.07;;;1.58;;
15968;SDS011;8085;53.472;9.794;2024-02-04T10:48:36;12.68;;;1.33;;
15968;SDS011;8085;53.472;9.794;2024-02-04T10:51:08;18.02;;;1.90;;
15968;SDS011;8085;53.472;9.794;2024-02-04T10:53:39;8.00;;;1.52;;
15968;SDS011;8085;53.472;9.794;2024-02-04T10:56:09;10.43;;;2.25;;
15968;SDS011;8085;53.472;9.794;2024-02-04T10:58:40;10.90;;;1.60;;
15968;SDS011;8085;53.472;9.794;2024-02-04T11:01:10;19.35;;;2.53;;
15968;SDS011;8085;53.472;9.794;2024-02-04T11:03:37;16.23;;;1.70;;
15968;SDS011;8085;53.472;9.794;2024-02-04T11:06:06;13.25;;;2.33;;
15968;SDS011;8085;53.472;9.794;2024-02-04T11:08:34;7.35;;;1.70;;
15968;SDS011;8085;53.472;9.794;2024-02-04T11:11:01;10.43;;;1.77;;
15968;SDS011;8085;53.472;9.794;2024-02-04T11:13:30;11.65;;;1.58;;
15968;SDS011;8085;53.472;9.794;2024-02-04T11:15:58;13.45;;;1.98;;
15968;SDS011;8085;53.472;9.794;2024-02-04T11:18:40;11.52;;;1.33;;
15968;SDS011;8085;53.472;9.794;2024-02-04T11:21:33;9.52;;;1.63;;
15968;SDS011;8085;53.472;9.794;2024-02-04T11:24:14;14.05;;;2.70;;
15968;SDS011;8085;53.472;9.794;2024-02-04T11:26:55;16.80;;;2.95;;
15968;SDS011;8085;53.472;9.794;2024-02-04T11:29:24;14.35;;;2.80;;
15968;SDS011;8085;53.472;9.794;2024-02-04T11:31:52;8.25;;;1.73;;
15968;SDS011;8085;53.472;9.794;2024-02-04T11:34:19;8.57;;;1.77;;
15968;SDS011;8085;53.472;9.794;2024-02-04T11:36:46;11.63;;;1.45;;
15968;SDS011;8085;53.472;9.794;2024-02-04T11:39:13;8.75;;;1.67;;
15968;SDS011;8085;53.472;9.794;2024-02-04T11:41:44;13.93;;;1.85;;
15968;SDS011;8085;53.472;9.794;2024-02-04T11:44:12;9.30;;;1.67;;
15968;SDS011;8085;53.472;9.794;2024-02-04T11:46:46;11.20;;;1.75;;
15968;SDS011;8085;53.472;9.794;2024-02-04T11:49:16;9.02;;;1.75;;
15968;SDS011;8085;53.472;9.794;2024-02-04T11:51:47;12.77;;;1.95;;
15968;SDS011;8085;53.472;9.794;2024-02-04T11:54:15;7.68;;;1.40;;
15968;SDS011;8085;53.472;9.794;2024-02-04T11:56:44;12.82;;;1.75;;
15968;SDS011;8085;53.472;9.794;2024-02-04T11:59:17;10.77;;;1.73;;
15968;SDS011;8085;53.472;9.794;2024-02-04T12:01:47;8.73;;;1.65;;
15968;SDS011;8085;53.472;9.794;2024-02-04T12:04:15;14.02;;;1.83;;
15968;SDS011;8085;53.472;9.794;2024-02-04T12:06:42;9.35;;;1.83;;
15968;SDS011;8085;53.472;9.794;2024-02-04T12:09:09;12.70;;;2.00;;
15968;SDS011;8085;53.472;9.794;2024-02-04T12:11:37;9.43;;;1.42;;
15968;SDS011;8085;53.472;9.794;2024-02-04T12:14:05;9.68;;;1.23;;
15968;SDS011;8085;53.472;9.794;2024-02-04T12:16:33;13.02;;;1.55;;
15968;SDS011;8085;53.472;9.794;2024-02-04T12:19:02;15.60;;;1.83;;
15968;SDS011;8085;53.472;9.794;2024-02-04T12:21:29;8.45;;;1.13;;
15968;SDS011;8085;53.472;9.794;2024-02-04T12:23:57;10.40;;;1.25;;
15968;SDS011;8085;53.472;9.794;2024-02-04T12:26:25;13.07;;;1.88;;
15968;SDS011;8085;53.472;9.794;2024-02-04T12:28:52;9.43;;;1.25;;
15968;SDS011;8085;53.472;9.794;2024-02-04T12:31:20;10.57;;;1.55;;
15968;SDS011;8085;53.472;9.794;2024-02-04T12:33:52;5.70;;;1.00;;
15968;SDS011;8085;53.472;9.794;2024-02-04T12:36:21;9.43;;;1.27;;
15968;SDS011;8085;53.472;9.794;2024-02-04T12:38:52;7.82;;;1.23;;
15968;SDS011;8085;53.472;9.794;2024-02-04T12:41:20;10.00;;;1.40;;
15968;SDS011;8085;53.472;9.794;2024-02-04T12:43:51;9.13;;;1.65;;
15968;SDS011;8085;53.472;9.794;2024-02-04T12:46:18;6.68;;;1.20;;
15968;SDS011;8085;53.472;9.794;2024-02-04T12:48:50;9.02;;;1.50;;
15968;SDS011;8085;53.472;9.794;2024-02-04T12:51:30;8.00;;;1.17;;
15968;SDS011;8085;53.472;9.794;2024-02-04T12:54:02;10.80;;;1.33;;
15968;SDS011;8085;53.472;9.794;2024-02-04T12:56:39;8.93;;;1.42;;
15968;SDS011;8085;53.472;9.794;2024-02-04T12:59:10;7.80;;;1.23;;
15968;SDS011;8085;53.472;9.794;2024-02-04T13:01:36;7.70;;;1.42;;
15968;SDS011;8085;53.472;9.794;2024-02-04T13:04:03;12.23;;;1.48;;
15968;SDS011;8085;53.472;9.794;2024-02-04T13:06:32;8.93;;;1.27;;
15968;SDS011;8085;53.472;9.794;2024-02-04T13:09:04;4.75;;;1.00;;
15968;SDS011;8085;53.472;9.794;2024-02-04T13:11:32;8.75;;;1.27;;
15968;SDS011;8085;53.472;9.794;2024-02-04T13:13:59;5.72;;;1.25;;
15968;SDS011;8085;53.472;9.794;2024-02-04T13:16:26;6.57;;;1.50;;
15968;SDS011;8085;53.472;9.794;2024-02-04T13:18:55;9.05;;;2.25;;
15968;SDS011;8085;53.472;9.794;2024-02-04T13:21:22;9.05;;;1.50;;
15968;SDS011;8085;53.472;9.794;2024-02-04T13:23:51;8.95;;;1.90;;
15968;SDS011;8085;53.472;9.794;2024-02-04T13:26:18;15.38;;;2.53;;
15968;SDS011;8085;53.472;9.794;2024-02-04T13:28:44;8.07;;;1.80;;
15968;SDS011;8085;53.472;9.794;2024-02-04T13:31:12;6.90;;;1.38;;
15968;SDS011;8085;53.472;9.794;2024-02-04T13:33:39;6.03;;;1.10;;
15968;SDS011;8085;53.472;9.794;2024-02-04T13:36:06;6.55;;;1.27;;
15968;SDS011;8085;53.472;9.794;2024-02-04T13:38:34;8.10;;;1.35;;
15968;SDS011;8085;53.472;9.794;2024-02-04T13:41:02;7.32;;;1.30;;
15968;SDS011;8085;53.472;9.794;2024-02-04T13:43:31;12.10;;;1.67;;
15968;SDS011;8085;53.472;9.794;2024-02-04T13:45:59;6.28;;;1.15;;
15968;SDS011;8085;53.472;9.794;2024-02-04T13:48:26;8.65;;;1.23;;
15968;SDS011;8085;53.472;9.794;2024-02-04T13:50:53;7.75;;;1.40;;
15968;SDS011;8085;53.472;9.794;2024-02-04T13:53:20;11.70;;;1.60;;
15968;SDS011;8085;53.472;9.794;2024-02-04T13:55:47;10.80;;;1.88;;
15968;SDS011;8085;53.472;9.794;2024-02-04T13:58:16;5.78;;;0.95;;
15968;SDS011;8085;53.472;9.794;2024-02-04T14:00:44;10.63;;;1.58;;
15968;SDS011;8085;53.472;9.794;2024-02-04T14:03:11;9.43;;;1.85;;
15968;SDS011;8085;53.472;9.794;2024-02-04T14:05:38;9.32;;;1.10;;
15968;SDS011;8085;53.472;9.794;2024-02-04T14:08:06;7.20;;;1.63;;
15968;SDS011;8085;53.472;9.794;2024-02-04T14:10:33;8.23;;;1.33;;
15968;SDS011;8085;53.472;9.794;2024-02-04T14:13:00;7.28;;;1.17;;
15968;SDS011;8085;53.472;9.794;2024-02-04T14:15:28;9.88;;;1.30;;
15968;SDS011;8085;53.472;9.794;2024-02-04T14:17:56;9.85;;;1.60;;
15968;SDS011;8085;53.472;9.794;2024-02-04T14:20:23;4.57;;;1.10;;
15968;SDS011;8085;53.472;9.794;2024-02-04T14:22:50;8.57;;;1.48;;
15968;SDS011;8085;53.472;9.794;2024-02-04T14:25:17;8.63;;;1.15;;
15968;SDS011;8085;53.472;9.794;2024-02-04T14:27:44;7.80;;;1.20;;
15968;SDS011;8085;53.472;9.794;2024-02-04T14:30:11;10.95;;;1.50;;
15968;SDS011;8085;53.472;9.794;2024-02-04T14:32:40;11.82;;;1.90;;
15968;SDS011;8085;53.472;9.794;2024-02-04T14:35:07;9.50;;;0.98;;
15968;SDS011;8085;53.472;9.794;2024-02-04T14:37:35;6.88;;;1.20;;
15968;SDS011;8085;53.472;9.794;2024-02-04T14:40:02;6.63;;;1.50;;
15968;SDS011;8085;53.472;9.794;2024-02-04T14:42:31;11.00;;;1.38;;
15968;SDS011;8085;53.472;9.794;2024-02-04T14:44:58;6.15;;;1.10;;
15968;SDS011;8085;53.472;9.794;2024-02-04T14:47:26;7.47;;;0.90;;
15968;SDS011;8085;53.472;9.794;2024-02-04T14:49:54;10.90;;;1.42;;
15968;SDS011;8085;53.472;9.794;2024-02-04T14:52:22;13.95;;;1.98;;
15968;SDS011;8085;53.472;9.794;2024-02-04T14:54:49;5.38;;;1.30;;
15968;SDS011;8085;53.472;9.794;2024-02-04T14:57:15;10.25;;;1.05;;
15968;SDS011;8085;53.472;9.794;2024-02-04T14:59:42;15.52;;;1.20;;
15968;SDS011;8085;53.472;9.794;2024-02-04T15:02:09;6.15;;;0.98;;
15968;SDS011;8085;53.472;9.794;2024-02-04T15:04:38;10.70;;;1.40;;
15968;SDS011;8085;53.472;9.794;2024-02-04T15:07:06;8.27;;;1.40;;
15968;SDS011;8085;53.472;9.794;2024-02-04T15:09:33;10.27;;;1.40;;
15968;SDS011;8085;53.472;9.794;2024-02-04T15:12:01;8.55;;;1.08;;
15968;SDS011;8085;53.472;9.794;2024-02-04T15:14:28;6.65;;;1.05;;
15968;SDS011;8085;53.472;9.794;2024-02-04T15:16:56;12.38;;;1.50;;